createdAt,value
2015-05-04T00:00:05.092Z,95050
2015-05-04T00:00:23.592Z,95044
2015-05-04T00:00:42.061Z,95050
2015-05-04T00:01:00.470Z,95042
2015-05-04T00:01:19.236Z,95044
2015-05-04T00:01:37.674Z,95050
2015-05-04T00:01:55.972Z,95042
2015-05-04T00:02:14.629Z,95044
2015-05-04T00:02:33.051Z,95050
2015-05-04T00:02:51.597Z,95059
2015-05-04T00:03:10.053Z,95056
2015-05-04T00:03:28.693Z,95053
2015-05-04T00:03:47.303Z,95045
2015-05-04T00:04:05.930Z,95054
2015-05-04T00:04:24.617Z,95056
2015-05-04T00:04:43.211Z,95060
2015-05-04T00:05:01.870Z,95059
2015-05-04T00:05:20.464Z,95054
2015-05-04T00:05:39.089Z,95051
2015-05-04T00:05:57.748Z,95057
2015-05-04T00:06:16.186Z,95063
2015-05-04T00:06:34.795Z,95063
2015-05-04T00:06:53.420Z,95054
2015-05-04T00:07:11.906Z,95066
2015-05-04T00:07:30.453Z,95057
2015-05-04T00:07:49.266Z,95060
2015-05-04T00:08:07.783Z,95060
2015-05-04T00:08:26.377Z,95049
2015-05-04T00:08:45.268Z,95063
2015-05-04T00:09:03.799Z,95060
2015-05-04T00:09:22.348Z,95057
2015-05-04T00:09:41.004Z,95054
2015-05-04T00:09:59.551Z,95054
2015-05-04T00:10:18.179Z,95069
2015-05-04T00:10:36.773Z,95066
2015-05-04T00:10:55.523Z,95055
2015-05-04T00:11:14.104Z,95066
2015-05-04T00:11:32.791Z,95066
2015-05-04T00:11:51.526Z,95063
2015-05-04T00:12:10.182Z,95063
2015-05-04T00:12:28.981Z,95069
2015-05-04T00:12:47.371Z,95060
2015-05-04T00:13:05.996Z,95057
2015-05-04T00:13:24.716Z,95063
2015-05-04T00:13:43.388Z,95066
2015-05-04T00:14:01.888Z,95057
2015-05-04T00:14:20.329Z,95054
2015-05-04T00:14:38.813Z,95063
2015-05-04T00:14:57.219Z,95054
2015-05-04T00:15:15.660Z,95060
2015-05-04T00:15:34.050Z,95051
2015-05-04T00:15:52.753Z,95054
2015-05-04T00:16:11.175Z,95046
2015-05-04T00:16:29.630Z,95046
2015-05-04T00:16:48.037Z,95051
2015-05-04T00:17:06.646Z,95057
2015-05-04T00:17:25.070Z,95051
2015-05-04T00:17:43.742Z,95051
2015-05-04T00:18:02.179Z,95063
2015-05-04T00:18:20.667Z,95052
2015-05-04T00:18:39.182Z,95060
2015-05-04T00:18:57.635Z,95058
2015-05-04T00:19:16.135Z,95061
2015-05-04T00:19:34.575Z,95058
2015-05-04T00:19:53.091Z,95063
2015-05-04T00:20:11.684Z,95060
2015-05-04T00:20:30.155Z,95060
2015-05-04T00:20:48.593Z,95060
2015-05-04T00:21:07.264Z,95060
2015-05-04T00:21:26.189Z,95060
2015-05-04T00:21:44.767Z,95058
2015-05-04T00:22:03.408Z,95058
2015-05-04T00:22:21.941Z,95055
2015-05-04T00:22:40.551Z,95046
2015-05-04T00:22:59.254Z,95055
2015-05-04T00:23:18.066Z,95047
2015-05-04T00:23:36.678Z,95064
2015-05-04T00:23:55.068Z,95064
2015-05-04T00:24:13.600Z,95058
2015-05-04T00:24:32.415Z,95061
2015-05-04T00:24:51.056Z,95062
2015-05-04T00:25:09.665Z,95062
2015-05-04T00:25:28.309Z,95059
2015-05-04T00:25:46.996Z,95053
2015-05-04T00:26:05.527Z,95053
2015-05-04T00:26:24.043Z,95053
2015-05-04T00:26:42.483Z,95067
2015-05-04T00:27:01.092Z,95065
2015-05-04T00:27:19.623Z,95047
2015-05-04T00:27:38.248Z,95062
2015-05-04T00:27:57.000Z,95065
2015-05-04T00:28:15.531Z,95059
2015-05-04T00:28:34.141Z,95065
2015-05-04T00:28:52.894Z,95059
2015-05-04T00:29:11.378Z,95059
2015-05-04T00:29:29.847Z,95062
2015-05-04T00:29:48.271Z,95059
2015-05-04T00:30:06.786Z,95048
2015-05-04T00:30:25.193Z,95065
2015-05-04T00:30:43.740Z,95056
2015-05-04T00:31:02.398Z,95065
2015-05-04T00:31:21.023Z,95063
2015-05-04T00:31:39.413Z,95057
2015-05-04T00:31:57.838Z,95060
2015-05-04T00:32:16.416Z,95069
2015-05-04T00:32:34.963Z,95063
2015-05-04T00:32:53.354Z,95060
2015-05-04T00:33:12.215Z,95057
2015-05-04T00:33:30.793Z,95066
2015-05-04T00:33:49.372Z,95066
2015-05-04T00:34:07.921Z,95057
2015-05-04T00:34:26.578Z,95063
2015-05-04T00:34:45.484Z,95066
2015-05-04T00:35:04.048Z,95063
2015-05-04T00:35:22.517Z,95063
2015-05-04T00:35:41.173Z,95069
2015-05-04T00:35:59.566Z,95069
2015-05-04T00:36:18.222Z,95071
2015-05-04T00:36:36.644Z,95077
2015-05-04T00:36:55.082Z,95068
2015-05-04T00:37:13.647Z,95068
2015-05-04T00:37:32.085Z,95074
2015-05-04T00:37:50.491Z,95080
2015-05-04T00:38:09.118Z,95080
2015-05-04T00:38:27.696Z,95086
2015-05-04T00:38:46.227Z,95083
2015-05-04T00:39:04.917Z,95077
2015-05-04T00:39:23.667Z,95082
2015-05-04T00:39:42.167Z,95085
2015-05-04T00:40:00.870Z,95085
2015-05-04T00:40:19.639Z,95088
2015-05-04T00:40:38.326Z,95082
2015-05-04T00:40:57.185Z,95082
2015-05-04T00:41:15.641Z,95088
2015-05-04T00:41:34.187Z,95088
2015-05-04T00:41:53.172Z,95079
2015-05-04T00:42:11.924Z,95093
2015-05-04T00:42:30.721Z,95087
2015-05-04T00:42:49.596Z,95087
2015-05-04T00:43:08.380Z,95093
2015-05-04T00:43:27.052Z,95093
2015-05-04T00:43:45.567Z,95090
2015-05-04T00:44:04.146Z,95093
2015-05-04T00:44:22.679Z,95093
2015-05-04T00:44:41.194Z,95087
2015-05-04T00:44:59.804Z,95079
2015-05-04T00:45:18.306Z,95093
2015-05-04T00:45:36.790Z,95081
2015-05-04T00:45:55.337Z,95090
2015-05-04T00:46:13.775Z,95087
2015-05-04T00:46:32.387Z,95090
2015-05-04T00:46:51.215Z,95093
2015-05-04T00:47:09.809Z,95090
2015-05-04T00:47:28.296Z,95099
2015-05-04T00:47:46.968Z,95093
2015-05-04T00:48:05.593Z,95087
2015-05-04T00:48:24.251Z,95093
2015-05-04T00:48:42.845Z,95090
2015-05-04T00:49:01.439Z,95093
2015-05-04T00:49:20.126Z,95093
2015-05-04T00:49:38.879Z,95090
2015-05-04T00:49:57.661Z,95093
2015-05-04T00:50:16.036Z,95093
2015-05-04T00:50:34.475Z,95093
2015-05-04T00:50:53.053Z,95093
2015-05-04T00:51:11.647Z,95084
2015-05-04T00:51:30.100Z,95078
2015-05-04T00:51:48.899Z,95087
2015-05-04T00:52:07.461Z,95093
2015-05-04T00:52:26.461Z,95078
2015-05-04T00:52:45.043Z,95092
2015-05-04T00:53:04.058Z,95081
2015-05-04T00:53:22.449Z,95081
2015-05-04T00:53:41.076Z,95089
2015-05-04T00:53:59.638Z,95084
2015-05-04T00:54:18.170Z,95089
2015-05-04T00:54:36.701Z,95101
2015-05-04T00:54:55.218Z,95089
2015-05-04T00:55:13.828Z,95095
2015-05-04T00:55:32.218Z,95087
2015-05-04T00:55:50.893Z,95092
2015-05-04T00:56:09.331Z,95081
2015-05-04T00:56:27.768Z,95084
2015-05-04T00:56:46.175Z,95087
2015-05-04T00:57:04.756Z,95087
2015-05-04T00:57:23.224Z,95078
2015-05-04T00:57:41.615Z,95087
2015-05-04T00:58:00.336Z,95079
2015-05-04T00:58:18.773Z,95087
2015-05-04T00:58:37.351Z,95081
2015-05-04T00:58:55.978Z,95081
2015-05-04T00:59:14.697Z,95087
2015-05-04T00:59:33.291Z,95084
2015-05-04T00:59:51.822Z,95087
2015-05-04T01:00:10.263Z,95081
2015-05-04T01:00:28.794Z,95081
2015-05-04T01:00:47.575Z,95081
2015-05-04T01:01:06.358Z,95087
2015-05-04T01:01:24.937Z,95093
2015-05-04T01:01:43.515Z,95090
2015-05-04T01:02:02.280Z,95096
2015-05-04T01:02:20.814Z,95087
2015-05-04T01:02:39.610Z,95095
2015-05-04T01:02:58.079Z,95087
2015-05-04T01:03:16.613Z,95089
2015-05-04T01:03:35.254Z,95098
2015-05-04T01:03:53.942Z,95095
2015-05-04T01:04:12.412Z,95098
2015-05-04T01:04:31.209Z,95098
2015-05-04T01:04:49.975Z,95086
2015-05-04T01:05:08.383Z,95098
2015-05-04T01:05:27.321Z,95101
2015-05-04T01:05:45.914Z,95103
2015-05-04T01:06:04.649Z,95101
2015-05-04T01:06:23.308Z,95095
2015-05-04T01:06:41.839Z,95093
2015-05-04T01:07:00.480Z,95110
2015-05-04T01:07:19.122Z,95096
2015-05-04T01:07:37.685Z,95099
2015-05-04T01:07:56.326Z,95101
2015-05-04T01:08:14.937Z,95107
2015-05-04T01:08:33.515Z,95104
2015-05-04T01:08:52.312Z,95107
2015-05-04T01:09:11.190Z,95107
2015-05-04T01:09:29.940Z,95098
2015-05-04T01:09:48.346Z,95103
2015-05-04T01:10:06.940Z,95100
2015-05-04T01:10:25.348Z,95103
2015-05-04T01:10:43.864Z,95109
2015-05-04T01:11:02.333Z,95103
2015-05-04T01:11:20.836Z,95100
2015-05-04T01:11:39.570Z,95106
2015-05-04T01:11:58.070Z,95103
2015-05-04T01:12:16.666Z,95103
2015-05-04T01:12:35.291Z,95106
2015-05-04T01:12:53.838Z,95103
2015-05-04T01:13:12.244Z,95103
2015-05-04T01:13:30.699Z,95106
2015-05-04T01:13:49.215Z,95103
2015-05-04T01:14:07.668Z,95106
2015-05-04T01:14:26.123Z,95100
2015-05-04T01:14:44.654Z,95103
2015-05-04T01:15:03.154Z,95103
2015-05-04T01:15:21.607Z,95109
2015-05-04T01:15:40.079Z,95106
2015-05-04T01:15:58.579Z,95100
2015-05-04T01:16:17.048Z,95103
2015-05-04T01:16:35.644Z,95103
2015-05-04T01:16:54.488Z,95106
2015-05-04T01:17:13.160Z,95109
2015-05-04T01:17:31.678Z,95103
2015-05-04T01:17:50.318Z,95100
2015-05-04T01:18:08.709Z,95105
2015-05-04T01:18:27.100Z,95102
2015-05-04T01:18:45.868Z,95105
2015-05-04T01:19:04.415Z,95102
2015-05-04T01:19:23.103Z,95102
2015-05-04T01:19:41.698Z,95099
2015-05-04T01:20:00.120Z,95102
2015-05-04T01:20:18.808Z,95102
2015-05-04T01:20:37.370Z,95116
2015-05-04T01:20:55.825Z,95110
2015-05-04T01:21:14.419Z,95101
2015-05-04T01:21:33.013Z,95107
2015-05-04T01:21:51.563Z,95107
2015-05-04T01:22:10.047Z,95107
2015-05-04T01:22:28.531Z,95113
2015-05-04T01:22:47.315Z,95095
2015-05-04T01:23:05.924Z,95101
2015-05-04T01:23:24.580Z,95107
2015-05-04T01:23:43.127Z,95104
2015-05-04T01:24:01.614Z,95104
2015-05-04T01:24:20.035Z,95096
2015-05-04T01:24:38.442Z,95102
2015-05-04T01:24:57.163Z,95107
2015-05-04T01:25:15.632Z,95116
2015-05-04T01:25:34.226Z,95107
2015-05-04T01:25:53.088Z,95101
2015-05-04T01:26:11.776Z,95107
2015-05-04T01:26:30.385Z,95113
2015-05-04T01:26:48.934Z,95107
2015-05-04T01:27:07.559Z,95110
2015-05-04T01:27:25.997Z,95112
2015-05-04T01:27:44.465Z,95121
2015-05-04T01:28:03.107Z,95109
2015-05-04T01:28:21.576Z,95118
2015-05-04T01:28:40.044Z,95129
2015-05-04T01:28:58.485Z,95114
2015-05-04T01:29:17.219Z,95121
2015-05-04T01:29:35.766Z,95120
2015-05-04T01:29:54.424Z,95126
2015-05-04T01:30:12.846Z,95118
2015-05-04T01:30:31.549Z,95123
2015-05-04T01:30:50.427Z,95118
2015-05-04T01:31:08.865Z,95117
2015-05-04T01:31:27.412Z,95109
2015-05-04T01:31:46.193Z,95118
2015-05-04T01:32:04.820Z,95114
2015-05-04T01:32:23.539Z,95115
2015-05-04T01:32:42.273Z,95121
2015-05-04T01:33:00.714Z,95118
2015-05-04T01:33:19.307Z,95115
2015-05-04T01:33:38.151Z,95117
2015-05-04T01:33:57.294Z,95112
2015-05-04T01:34:15.950Z,95109
2015-05-04T01:34:34.747Z,95115
2015-05-04T01:34:53.356Z,95114
2015-05-04T01:35:11.983Z,95117
2015-05-04T01:35:30.733Z,95111
2015-05-04T01:35:49.280Z,95117
2015-05-04T01:36:07.752Z,95117
2015-05-04T01:36:26.377Z,95111
2015-05-04T01:36:44.799Z,95117
2015-05-04T01:37:03.582Z,95129
2015-05-04T01:37:22.191Z,95114
2015-05-04T01:37:40.832Z,95111
2015-05-04T01:37:59.723Z,95120
2015-05-04T01:38:18.350Z,95126
2015-05-04T01:38:36.912Z,95120
2015-05-04T01:38:55.662Z,95123
2015-05-04T01:39:14.134Z,95129
2015-05-04T01:39:32.728Z,95123
2015-05-04T01:39:51.462Z,95126
2015-05-04T01:40:09.964Z,95129
2015-05-04T01:40:28.589Z,95131
2015-05-04T01:40:47.402Z,95131
2015-05-04T01:41:05.870Z,95129
2015-05-04T01:41:23.669Z,95129
2015-05-04T01:41:42.107Z,95131
2015-05-04T01:42:00.607Z,95126
2015-05-04T01:42:19.250Z,95126
2015-05-04T01:42:37.891Z,95129
2015-05-04T01:42:56.297Z,95129
2015-05-04T01:43:14.846Z,95126
2015-05-04T01:43:33.424Z,95136
2015-05-04T01:43:52.002Z,95131
2015-05-04T01:44:10.537Z,95129
2015-05-04T01:44:29.349Z,95123
2015-05-04T01:44:48.287Z,95118
2015-05-04T01:45:06.958Z,95134
2015-05-04T01:45:25.601Z,95124
2015-05-04T01:45:44.164Z,95129
2015-05-04T01:46:02.773Z,95134
2015-05-04T01:46:21.384Z,95129
2015-05-04T01:46:40.009Z,95129
2015-05-04T01:46:58.587Z,95129
2015-05-04T01:47:17.294Z,95132
2015-05-04T01:47:36.106Z,95134
2015-05-04T01:47:54.762Z,95130
2015-05-04T01:48:13.546Z,95135
2015-05-04T01:48:32.108Z,95137
2015-05-04T01:48:50.530Z,95127
2015-05-04T01:49:09.108Z,95138
2015-05-04T01:49:27.641Z,95135
2015-05-04T01:49:46.329Z,95143
2015-05-04T01:50:05.188Z,95130
2015-05-04T01:50:23.659Z,95138
2015-05-04T01:50:42.440Z,95127
2015-05-04T01:51:01.175Z,95130
2015-05-04T01:51:19.818Z,95132
2015-05-04T01:51:38.584Z,95127
2015-05-04T01:51:57.084Z,95127
2015-05-04T01:52:15.834Z,95135
2015-05-04T01:52:34.461Z,95132
2015-05-04T01:52:52.883Z,95135
2015-05-04T01:53:11.414Z,95138
2015-05-04T01:53:29.823Z,95125
2015-05-04T01:53:48.636Z,95138
2015-05-04T01:54:07.339Z,95131
2015-05-04T01:54:25.731Z,95133
2015-05-04T01:54:45.325Z,95133
2015-05-04T01:55:03.919Z,95139
2015-05-04T01:55:22.591Z,95139
2015-05-04T01:55:41.266Z,95131
2015-05-04T01:55:59.688Z,95143
2015-05-04T01:56:18.188Z,95137
2015-05-04T01:56:36.799Z,95143
2015-05-04T01:56:55.205Z,95140
2015-05-04T01:57:14.049Z,95137
2015-05-04T01:57:32.613Z,95143
2015-05-04T01:57:51.035Z,95134
2015-05-04T01:58:09.676Z,95143
2015-05-04T01:58:28.113Z,95137
2015-05-04T01:58:46.695Z,95137
2015-05-04T01:59:05.132Z,95140
2015-05-04T01:59:23.851Z,95137
2015-05-04T01:59:42.790Z,95137
2015-05-04T02:00:01.681Z,95135
2015-05-04T02:00:20.587Z,95140
2015-05-04T02:00:39.168Z,95134
2015-05-04T02:00:57.746Z,95132
2015-05-04T02:01:16.231Z,95132
2015-05-04T02:01:34.952Z,95131
2015-05-04T02:01:53.561Z,95129
2015-05-04T02:02:12.155Z,95140
2015-05-04T02:02:30.842Z,95134
2015-05-04T02:02:49.500Z,95129
2015-05-04T02:03:08.141Z,95134
2015-05-04T02:03:26.719Z,95120
2015-05-04T02:03:45.285Z,95129
2015-05-04T02:04:03.707Z,95131
2015-05-04T02:04:22.113Z,95129
2015-05-04T02:04:40.615Z,95126
2015-05-04T02:04:59.443Z,95133
2015-05-04T02:05:18.302Z,95129
2015-05-04T02:05:37.005Z,95131
2015-05-04T02:05:55.492Z,95133
2015-05-04T02:06:14.226Z,95139
2015-05-04T02:06:32.664Z,95133
2015-05-04T02:06:51.072Z,95131
2015-05-04T02:07:09.588Z,95139
2015-05-04T02:07:28.056Z,95134
2015-05-04T02:07:46.512Z,95131
2015-05-04T02:08:05.044Z,95129
2015-05-04T02:08:23.497Z,95137
2015-05-04T02:08:42.247Z,95131
2015-05-04T02:09:00.780Z,95134
2015-05-04T02:09:19.421Z,95131
2015-05-04T02:09:37.921Z,95134
2015-05-04T02:09:56.345Z,95140
2015-05-04T02:10:14.782Z,95126
2015-05-04T02:10:33.345Z,95129
2015-05-04T02:10:52.113Z,95134
2015-05-04T02:11:10.848Z,95129
2015-05-04T02:11:29.410Z,95134
2015-05-04T02:11:47.863Z,95131
2015-05-04T02:12:06.490Z,95131
2015-05-04T02:12:25.084Z,95123
2015-05-04T02:12:43.693Z,95129
2015-05-04T02:13:02.353Z,95134
2015-05-04T02:13:20.790Z,95134
2015-05-04T02:13:39.290Z,95131
2015-05-04T02:13:57.809Z,95134
2015-05-04T02:14:16.199Z,95126
2015-05-04T02:14:34.606Z,95134
2015-05-04T02:14:53.402Z,95134
2015-05-04T02:15:12.122Z,95130
2015-05-04T02:15:30.966Z,95124
2015-05-04T02:15:49.653Z,95131
2015-05-04T02:16:08.422Z,95134
2015-05-04T02:16:27.110Z,95130
2015-05-04T02:16:45.938Z,95137
2015-05-04T02:17:04.328Z,95130
2015-05-04T02:17:22.924Z,95141
2015-05-04T02:17:41.690Z,95138
2015-05-04T02:18:00.158Z,95131
2015-05-04T02:18:18.582Z,95141
2015-05-04T02:18:37.192Z,95138
2015-05-04T02:18:55.692Z,95144
2015-05-04T02:19:14.148Z,95135
2015-05-04T02:19:32.570Z,95138
2015-05-04T02:19:51.070Z,95138
2015-05-04T02:20:09.523Z,95133
2015-05-04T02:20:27.978Z,95141
2015-05-04T02:20:46.415Z,95135
2015-05-04T02:21:04.869Z,95135
2015-05-04T02:21:23.372Z,95138
2015-05-04T02:21:42.200Z,95135
2015-05-04T02:22:00.668Z,95144
2015-05-04T02:22:19.249Z,95133
2015-05-04T02:22:37.780Z,95138
2015-05-04T02:22:56.389Z,95150
2015-05-04T02:23:14.986Z,95144
2015-05-04T02:23:33.502Z,95136
2015-05-04T02:23:51.955Z,95144
2015-05-04T02:24:10.361Z,95144
2015-05-04T02:24:28.832Z,95136
2015-05-04T02:24:47.410Z,95147
2015-05-04T02:25:05.832Z,95145
2015-05-04T02:25:24.599Z,95150
2015-05-04T02:25:43.037Z,95139
2015-05-04T02:26:01.427Z,95145
2015-05-04T02:26:19.930Z,95145
2015-05-04T02:26:38.321Z,95148
2015-05-04T02:26:56.977Z,95145
2015-05-04T02:27:15.368Z,95150
2015-05-04T02:27:34.011Z,95147
2015-05-04T02:27:52.479Z,95153
2015-05-04T02:28:10.901Z,95142
2015-05-04T02:28:29.356Z,95142
2015-05-04T02:28:47.950Z,95145
2015-05-04T02:29:06.372Z,95147
2015-05-04T02:29:24.968Z,95139
2015-05-04T02:29:43.436Z,95142
2015-05-04T02:30:01.874Z,95150
2015-05-04T02:30:20.499Z,95145
2015-05-04T02:30:38.971Z,95153
2015-05-04T02:30:57.627Z,95147
2015-05-04T02:31:16.049Z,95150
2015-05-04T02:31:34.426Z,95153
2015-05-04T02:31:53.066Z,95147
2015-05-04T02:32:11.660Z,95144
2015-05-04T02:32:30.100Z,95150
2015-05-04T02:32:48.475Z,95150
2015-05-04T02:33:06.881Z,95147
2015-05-04T02:33:25.381Z,95156
2015-05-04T02:33:43.946Z,95147
2015-05-04T02:34:02.540Z,95144
2015-05-04T02:34:20.931Z,95147
2015-05-04T02:34:39.761Z,95156
2015-05-04T02:34:58.152Z,95144
2015-05-04T02:35:16.948Z,95153
2015-05-04T02:35:35.608Z,95147
2015-05-04T02:35:54.280Z,95153
2015-05-04T02:36:13.030Z,95158
2015-05-04T02:36:31.703Z,95144
2015-05-04T02:36:50.188Z,95152
2015-05-04T02:37:08.860Z,95155
2015-05-04T02:37:27.422Z,95152
2015-05-04T02:37:45.846Z,95161
2015-05-04T02:38:04.299Z,95161
2015-05-04T02:38:22.799Z,95152
2015-05-04T02:38:41.443Z,95158
2015-05-04T02:38:59.458Z,95152
2015-05-04T02:39:18.099Z,95163
2015-05-04T02:39:36.585Z,95149
2015-05-04T02:39:55.054Z,95155
2015-05-04T02:40:13.898Z,95155
2015-05-04T02:40:32.304Z,95157
2015-05-04T02:40:50.870Z,95161
2015-05-04T02:41:09.620Z,95158
2015-05-04T02:41:28.010Z,95152
2015-05-04T02:41:46.419Z,95166
2015-05-04T02:42:04.872Z,95158
2015-05-04T02:42:23.278Z,95155
2015-05-04T02:42:41.887Z,95161
2015-05-04T02:43:00.531Z,95155
2015-05-04T02:43:19.047Z,95161
2015-05-04T02:43:37.625Z,95158
2015-05-04T02:43:56.173Z,95161
2015-05-04T02:44:14.579Z,95156
2015-05-04T02:44:33.188Z,95155
2015-05-04T02:44:51.879Z,95150
2015-05-04T02:45:10.269Z,95153
2015-05-04T02:45:28.660Z,95153
2015-05-04T02:45:47.254Z,95156
2015-05-04T02:46:05.912Z,95153
2015-05-04T02:46:24.303Z,95158
2015-05-04T02:46:42.849Z,95158
2015-05-04T02:47:01.243Z,95164
2015-05-04T02:47:20.040Z,95155
2015-05-04T02:47:38.571Z,95150
2015-05-04T02:47:57.104Z,95161
2015-05-04T02:48:15.683Z,95161
2015-05-04T02:48:34.089Z,95155
2015-05-04T02:48:52.654Z,95156
2015-05-04T02:49:11.545Z,95156
2015-05-04T02:49:29.279Z,95153
2015-05-04T02:49:48.107Z,95150
2015-05-04T02:50:06.547Z,95161
2015-05-04T02:50:25.031Z,95164
2015-05-04T02:50:43.844Z,95150
2015-05-04T02:51:02.347Z,95150
2015-05-04T02:51:20.894Z,95156
2015-05-04T02:51:39.331Z,95161
2015-05-04T02:51:57.818Z,95156
2015-05-04T02:52:16.286Z,95161
2015-05-04T02:52:34.739Z,95156
2015-05-04T02:52:53.458Z,95156
2015-05-04T02:53:11.990Z,95156
2015-05-04T02:53:30.647Z,95150
2015-05-04T02:53:49.319Z,95164
2015-05-04T02:54:07.822Z,95155
2015-05-04T02:54:26.228Z,95147
2015-05-04T02:54:44.868Z,95155
2015-05-04T02:55:03.277Z,95150
2015-05-04T02:55:21.824Z,95147
2015-05-04T02:55:40.402Z,95156
2015-05-04T02:55:58.917Z,95150
2015-05-04T02:56:17.686Z,95144
2015-05-04T02:56:36.295Z,95144
2015-05-04T02:56:54.873Z,95155
2015-05-04T02:57:13.439Z,95158
2015-05-04T02:57:32.048Z,95150
2015-05-04T02:57:50.517Z,95138
2015-05-04T02:58:09.160Z,95158
2015-05-04T02:58:27.957Z,95155
2015-05-04T02:58:46.394Z,95147
2015-05-04T02:59:04.785Z,95156
2015-05-04T02:59:23.240Z,95158
2015-05-04T02:59:41.755Z,95161
2015-05-04T03:00:00.255Z,95161
2015-05-04T03:00:18.899Z,95156
2015-05-04T03:00:37.399Z,95158
2015-05-04T03:00:55.883Z,95155
2015-05-04T03:01:14.399Z,95150
2015-05-04T03:01:33.089Z,95158
2015-05-04T03:01:51.479Z,95155
2015-05-04T03:02:09.870Z,95161
2015-05-04T03:02:28.248Z,95161
2015-05-04T03:02:46.763Z,95161
2015-05-04T03:03:05.263Z,95163
2015-05-04T03:03:23.732Z,95163
2015-05-04T03:03:42.187Z,95169
2015-05-04T03:04:00.875Z,95154
2015-05-04T03:04:19.390Z,95157
2015-05-04T03:04:38.127Z,95160
2015-05-04T03:04:56.767Z,95160
2015-05-04T03:05:15.439Z,95163
2015-05-04T03:05:33.927Z,95163
2015-05-04T03:05:52.333Z,95163
2015-05-04T03:06:10.849Z,95160
2015-05-04T03:06:29.302Z,95154
2015-05-04T03:06:47.788Z,95163
2015-05-04T03:07:06.382Z,95157
2015-05-04T03:07:24.819Z,95160
2015-05-04T03:07:43.557Z,95157
2015-05-04T03:08:02.354Z,95169
2015-05-04T03:08:20.775Z,95172
2015-05-04T03:08:39.324Z,95169
2015-05-04T03:08:57.777Z,95160
2015-05-04T03:09:16.168Z,95163
2015-05-04T03:09:34.652Z,95171
2015-05-04T03:09:53.311Z,95171
2015-05-04T03:10:11.842Z,95163
2015-05-04T03:10:30.529Z,95174
2015-05-04T03:10:49.266Z,95165
2015-05-04T03:11:07.875Z,95171
2015-05-04T03:11:26.672Z,95168
2015-05-04T03:11:45.597Z,95168
2015-05-04T03:12:04.378Z,95168
2015-05-04T03:12:23.097Z,95174
2015-05-04T03:12:41.552Z,95168
2015-05-04T03:12:59.974Z,95162
2015-05-04T03:13:18.552Z,95168
2015-05-04T03:13:37.193Z,95171
2015-05-04T03:13:55.696Z,95168
2015-05-04T03:14:14.602Z,95168
2015-05-04T03:14:33.305Z,95162
2015-05-04T03:14:51.807Z,95168
2015-05-04T03:15:10.416Z,95165
2015-05-04T03:15:28.854Z,95168
2015-05-04T03:15:47.248Z,95174
2015-05-04T03:16:05.763Z,95174
2015-05-04T03:16:24.388Z,95174
2015-05-04T03:16:42.779Z,95174
2015-05-04T03:17:01.499Z,95168
2015-05-04T03:17:20.014Z,95174
2015-05-04T03:17:38.670Z,95172
2015-05-04T03:17:57.283Z,95169
2015-05-04T03:18:15.673Z,95177
2015-05-04T03:18:34.345Z,95174
2015-05-04T03:18:52.832Z,95177
2015-05-04T03:19:11.379Z,95174
2015-05-04T03:19:29.769Z,95174
2015-05-04T03:19:48.363Z,95183
2015-05-04T03:20:06.757Z,95177
2015-05-04T03:20:25.397Z,95174
2015-05-04T03:20:44.038Z,95163
2015-05-04T03:21:02.665Z,95165
2015-05-04T03:21:21.368Z,95171
2015-05-04T03:21:39.899Z,95177
2015-05-04T03:21:58.276Z,95168
2015-05-04T03:22:16.761Z,95168
2015-05-04T03:22:35.417Z,95168
2015-05-04T03:22:53.854Z,95174
2015-05-04T03:23:12.435Z,95171
2015-05-04T03:23:30.873Z,95171
2015-05-04T03:23:49.514Z,95177
2015-05-04T03:24:08.142Z,95177
2015-05-04T03:24:26.798Z,95171
2015-05-04T03:24:45.813Z,95168
2015-05-04T03:25:04.237Z,95177
2015-05-04T03:25:22.831Z,95172
2015-05-04T03:25:41.597Z,95172
2015-05-04T03:26:00.003Z,95174
2015-05-04T03:26:18.474Z,95169
2015-05-04T03:26:37.005Z,95174
2015-05-04T03:26:55.614Z,95175
2015-05-04T03:27:14.305Z,95172
2015-05-04T03:27:32.789Z,95166
2015-05-04T03:27:51.555Z,95175
2015-05-04T03:28:09.947Z,95172
2015-05-04T03:28:28.526Z,95172
2015-05-04T03:28:46.947Z,95175
2015-05-04T03:29:05.385Z,95172
2015-05-04T03:29:23.778Z,95169
2015-05-04T03:29:42.215Z,95172
2015-05-04T03:30:00.606Z,95172
2015-05-04T03:30:18.999Z,95166
2015-05-04T03:30:37.671Z,95169
2015-05-04T03:30:56.187Z,95174
2015-05-04T03:31:14.673Z,95172
2015-05-04T03:31:33.111Z,95180
2015-05-04T03:31:51.658Z,95174
2015-05-04T03:32:10.114Z,95166
2015-05-04T03:32:28.520Z,95169
2015-05-04T03:32:47.098Z,95163
2015-05-04T03:33:05.770Z,95177
2015-05-04T03:33:24.163Z,95177
2015-05-04T03:33:42.553Z,95169
2015-05-04T03:34:00.959Z,95175
2015-05-04T03:34:19.415Z,95181
2015-05-04T03:34:37.977Z,95181
2015-05-04T03:34:56.477Z,95172
2015-05-04T03:35:14.932Z,95181
2015-05-04T03:35:33.463Z,95184
2015-05-04T03:35:51.901Z,95178
2015-05-04T03:36:10.338Z,95178
2015-05-04T03:36:28.732Z,95178
2015-05-04T03:36:47.216Z,95186
2015-05-04T03:37:05.732Z,95183
2015-05-04T03:37:24.125Z,95183
2015-05-04T03:37:42.734Z,95192
2015-05-04T03:38:01.218Z,95192
2015-05-04T03:38:19.689Z,95192
2015-05-04T03:38:38.267Z,95189
2015-05-04T03:38:56.658Z,95186
2015-05-04T03:39:15.095Z,95197
2015-05-04T03:39:33.927Z,95192
2015-05-04T03:39:52.067Z,95195
2015-05-04T03:40:10.458Z,95192
2015-05-04T03:40:28.866Z,95192
2015-05-04T03:40:47.272Z,95183
2015-05-04T03:41:05.725Z,95189
2015-05-04T03:41:24.243Z,95186
2015-05-04T03:41:42.665Z,95202
2015-05-04T03:42:01.056Z,95191
2015-05-04T03:42:19.571Z,95191
2015-05-04T03:42:37.996Z,95185
2015-05-04T03:42:56.465Z,95191
2015-05-04T03:43:15.090Z,95191
2015-05-04T03:43:33.623Z,95188
2015-05-04T03:43:52.092Z,95191
2015-05-04T03:44:10.670Z,95188
2015-05-04T03:44:29.266Z,95191
2015-05-04T03:44:47.734Z,95191
2015-05-04T03:45:06.141Z,95194
2015-05-04T03:45:24.875Z,95191
2015-05-04T03:45:43.394Z,95191
2015-05-04T03:46:01.909Z,95188
2015-05-04T03:46:20.519Z,95194
2015-05-04T03:46:39.239Z,95185
2015-05-04T03:46:57.693Z,95191
2015-05-04T03:47:16.161Z,95188
2015-05-04T03:47:34.617Z,95185
2015-05-04T03:47:53.399Z,95185
2015-05-04T03:48:11.961Z,95176
2015-05-04T03:48:30.383Z,95185
2015-05-04T03:48:48.807Z,95188
2015-05-04T03:49:07.229Z,95185
2015-05-04T03:49:25.729Z,95188
2015-05-04T03:49:44.154Z,95185
2015-05-04T03:50:02.716Z,95182
2015-05-04T03:50:21.185Z,95196
2015-05-04T03:50:39.622Z,95191
2015-05-04T03:50:58.265Z,95193
2015-05-04T03:51:16.859Z,95196
2015-05-04T03:51:35.265Z,95179
2015-05-04T03:51:53.189Z,95196
2015-05-04T03:52:11.751Z,95179
2015-05-04T03:52:30.173Z,95188
2015-05-04T03:52:48.613Z,95185
2015-05-04T03:53:07.019Z,95185
2015-05-04T03:53:25.503Z,95191
2015-05-04T03:53:44.066Z,95179
2015-05-04T03:54:02.460Z,95177
2015-05-04T03:54:20.850Z,95173
2015-05-04T03:54:39.241Z,95177
2015-05-04T03:54:57.744Z,95179
2015-05-04T03:55:16.275Z,95179
2015-05-04T03:55:34.666Z,95168
2015-05-04T03:55:53.056Z,95182
2015-05-04T03:56:11.574Z,95182
2015-05-04T03:56:30.011Z,95179
2015-05-04T03:56:48.496Z,95182
2015-05-04T03:57:06.998Z,95176
2015-05-04T03:57:25.482Z,95179
2015-05-04T03:57:43.873Z,95179
2015-05-04T03:58:02.265Z,95173
2015-05-04T03:58:20.844Z,95179
2015-05-04T03:58:39.390Z,95179
2015-05-04T03:58:57.844Z,95179